Hereford, Oregon
Current Conditions -  °F | °C
As of 4:53 AM on Monday 20 Oct 2014 (Local Time) from KBKE Reporting Station
Clear Clear  
Wind Chill: 34°   Ceiling: Unl
Heat Index: 40°   Visibility: 10mi
Dew Point: 31°   Wind: 8mph
Humidity: 70%   Direction: 160°SSE
Pressure: 29.85"   Gusts: NA
Location:  44.49°N, 118.03°W
Report Text: KBKE 201153Z AUTO 16007KT 10SM CLR 04/M01 A2985 RMK AO2 SLP101 T00441006 10094 20039 53001 $
Loading
Personal Weather Stations






























Interactive Weather Map
Tropical Storm Tracking
New forecast layout! Learn more

10-Day Weather Forecast

Advertisements
Track Severe Weather on mobile